WetterOnline ( http://www.wetteronline.de )

Wetter aktuell Lüchow

Aktuelles Wetter: Lüchow (18m)

6-stündlich | Neueste Meldungen
Ortszeit Temperatur Wetter
Sa, 21.07. 20:00 25.5° C bewölkt
Sa, 21.07. 14:00 27.4° C wolkig
Sa, 21.07. 8:00 14.9° C wolkig
Sa, 21.07. 2:00 11.7° C wolkig
Fr, 20.07. 20:00 23.6° C wolkig
Fr, 20.07. 14:00 24.3° C leicht bewölkt
Fr, 20.07. 8:00 15.6° C bewölkt
Fr, 20.07. 2:00 12.6° C bewölkt
Ortszeit Temperatur Wetter
Sa, 21.07. 21:00 24.2° C bewölkt
Sa, 21.07. 20:50 24.2° C bewölkt
Sa, 21.07. 20:40 24.4° C bewölkt
Sa, 21.07. 20:30 25.3° C bewölkt
Sa, 21.07. 20:20 25.3° C bewölkt
Sa, 21.07. 20:10 25.6° C bewölkt
Sa, 21.07. 20:00 25.5° C bewölkt
Sa, 21.07. 19:30 26.1° C bedeckt
Sa, 21.07. 19:00 26.1° C bedeckt
Sa, 21.07. 18:30 26.3° C bedeckt
Sa, 21.07. 18:00 26.9° C bedeckt
Ortszeit Relative Feuchte Sichtweite
Sa, 21.07. 20:00 47% 26 km
Sa, 21.07. 14:00 34% 20 km
Sa, 21.07. 8:00 75% 23 km
Sa, 21.07. 2:00 82% 24 km
Fr, 20.07. 20:00 40% 28 km
Fr, 20.07. 14:00 38% 35 km
Fr, 20.07. 8:00 74% 26 km
Fr, 20.07. 2:00 84% 20 km
Ortszeit Relative Feuchte Sichtweite
Sa, 21.07. 21:00 49% 22 km
Sa, 21.07. 20:50 49% -
Sa, 21.07. 20:40 50% -
Sa, 21.07. 20:30 45% 24 km
Sa, 21.07. 20:20 45% -
Sa, 21.07. 20:10 46% -
Sa, 21.07. 20:00 47% 26 km
Sa, 21.07. 19:30 48% 25 km
Sa, 21.07. 19:00 43% 25 km
Sa, 21.07. 18:30 44% 27 km
Sa, 21.07. 18:00 39% 27 km
Ortszeit Niederschlagsmenge Niederschlagsart
Sa, 21.07. 20:00 0.1 l/m2 in 12 Std. Regen
Sa, 21.07. 14:00 0.0 l/m2 in 6 Std. -
Sa, 21.07. 8:00 0.0 l/m2 in 12 Std. -
Sa, 21.07. 2:00 0.0 l/m2 in 6 Std. -
Fr, 20.07. 20:00 0.0 l/m2 in 12 Std. -
Fr, 20.07. 14:00 0.0 l/m2 in 6 Std. -
Fr, 20.07. 8:00 0.0 l/m2 in 12 Std. -
Fr, 20.07. 2:00 0.0 l/m2 in 6 Std. -
Ortszeit Niederschlagsmenge Niederschlagsart
Sa, 21.07. 21:00 0.0 l/m2 in 1 Std. -
Sa, 21.07. 20:50 keine Meldung -
Sa, 21.07. 20:40 keine Meldung -
Sa, 21.07. 20:30 0.0 l/m2 in 1 Std. -
Sa, 21.07. 20:20 keine Meldung -
Sa, 21.07. 20:10 keine Meldung -
Sa, 21.07. 20:00 0.0 l/m2 in 1 Std. Regen
Sa, 21.07. 19:30 0.0 l/m2 in 1 Std. -
Sa, 21.07. 19:00 0.1 l/m2 in 1 Std. -
Sa, 21.07. 18:30 0.1 l/m2 in 1 Std. -
Sa, 21.07. 18:00 0.1 l/m2 in 1 Std. Regen
Ortszeit Stärke Spitze Richtung
km/h Bft. km/h Grad Sektor
Sa, 21.07. 20:00 7 2 24 40° NO
Sa, 21.07. 14:00 11 2 40 80° O
Sa, 21.07. 8:00 4 1 7 10° N
Sa, 21.07. 2:00 0 0 22 - -
Fr, 20.07. 20:00 9 2 22 20° N
Fr, 20.07. 14:00 7 2 18 10° N
Fr, 20.07. 8:00 4 1 7 20° N
Fr, 20.07. 2:00 2 1 24 290° W
Ortszeit Stärke Spitze Richtung
km/h Bft. km/h Grad Sektor
Sa, 21.07. 21:00 6 1 17 40° NO
Sa, 21.07. 20:50 6 1 - 40° NO
Sa, 21.07. 20:40 6 1 - 40° NO
Sa, 21.07. 20:30 9 2 17 40° NO
Sa, 21.07. 20:20 9 2 - 40° NO
Sa, 21.07. 20:10 9 2 - 40° NO
Sa, 21.07. 20:00 7 2 13 40° NO
Sa, 21.07. 19:30 6 1 11 30° NO
Sa, 21.07. 19:00 7 2 11 360° N
Sa, 21.07. 18:30 4 1 4 20° N
Sa, 21.07. 18:00 2 1 11 350° N
Ortszeit Untergrenze Bedeckung Gattung
total tief tief mittel hoch
Sa, 21.07. 20:00 3300 m 8/8 7/8 - - -
Sa, 21.07. 14:00 2400 m 7/8 1/8 - - -
Sa, 21.07. 8:00 7500 m 8/8 0/8 - - -
Sa, 21.07. 2:00 2400 m 5/8 4/8 - - -
Fr, 20.07. 20:00 7200 m 8/8 0/8 - - -
Fr, 20.07. 14:00 2400 m 3/8 - - - -
Fr, 20.07. 8:00 2400 m 7/8 7/8 - - -
Fr, 20.07. 2:00 2100 m 7/8 7/8 - - -
Ortszeit Bedeckungsgrad in Achtel und Wolkenuntergrenze
Sa, 21.07. 21:00 4(3300m) 8(8100m)
Sa, 21.07. 20:50 4(3300m) 8(8100m)
Sa, 21.07. 20:40 6(3300m) 8(8100m)
Sa, 21.07. 20:30 7(3300m) 8(8100m)
Sa, 21.07. 20:20 7(3300m) 8(8100m)
Sa, 21.07. 20:10 7(3300m) 8(7800m)
Sa, 21.07. 20:00 7(3300m) 8(7800m)
Sa, 21.07. 19:30 8(3300m)
Sa, 21.07. 19:00 8(2700m) 8(3300m)
Sa, 21.07. 18:30 8(2700m)
Sa, 21.07. 18:00 8(2700m)
Ortszeit Luftdruck NN (hPa) Tendenz (hPa in 3 Std.)
Sa, 21.07. 20:00 1011 - 0,5
Sa, 21.07. 14:00 1012 - 0,9
Sa, 21.07. 8:00 1013 0,0
Sa, 21.07. 2:00 1014 0,0
Fr, 20.07. 20:00 1013 - 0,8
Fr, 20.07. 14:00 1015 - 0,9
Fr, 20.07. 8:00 1017 0,0
Fr, 20.07. 2:00 1017 - 0,2
Ortszeit Luftdruck NN (hPa) Tendenz (hPa in 3 Std.)
Sa, 21.07. 21:00 1011 - 0,6
Sa, 21.07. 20:50 1011 keine Meldung
Sa, 21.07. 20:40 1011 keine Meldung
Sa, 21.07. 20:30 1011 - 0,5
Sa, 21.07. 20:20 1011 keine Meldung
Sa, 21.07. 20:10 1011 keine Meldung
Sa, 21.07. 20:00 1011 - 0,5
Sa, 21.07. 19:30 1011 - 0,5
Sa, 21.07. 19:00 1011 - 0,3
Sa, 21.07. 18:30 1011 - 0,3
Sa, 21.07. 18:00 1012 - 0,4
Ortszeit Schneehöhe (cm)
Sa, 21.07. 20:00 -
Sa, 21.07. 14:00 -
Sa, 21.07. 8:00 -
Sa, 21.07. 2:00 -
Fr, 20.07. 20:00 -
Fr, 20.07. 14:00 -
Fr, 20.07. 8:00 -
Fr, 20.07. 2:00 -
Ortszeit Schneehöhe (cm)
Sa, 21.07. 21:00 -
Sa, 21.07. 20:50 -
Sa, 21.07. 20:40 -
Sa, 21.07. 20:30 -
Sa, 21.07. 20:20 -
Sa, 21.07. 20:10 -
Sa, 21.07. 20:00 -
Sa, 21.07. 19:30 -
Sa, 21.07. 19:00 -
Sa, 21.07. 18:30 -
Sa, 21.07. 18:00 -
Link zu dieser Seite / Seite empfehlen

Das Wetter in ...